sensor_id;sensor_type;location;lat;lon;timestamp;temperature;humidity
19168;DHT22;9716;53.114;18.040;2023-11-18T00:01:34;3.90;99.90
19168;DHT22;9716;53.114;18.040;2023-11-18T00:04:04;3.90;99.90
19168;DHT22;9716;53.114;18.040;2023-11-18T00:06:37;3.90;99.90
19168;DHT22;9716;53.114;18.040;2023-11-18T00:09:05;3.90;99.90
19168;DHT22;9716;53.114;18.040;2023-11-18T00:11:34;3.90;99.90
19168;DHT22;9716;53.114;18.040;2023-11-18T00:14:03;3.90;99.90
19168;DHT22;9716;53.114;18.040;2023-11-18T00:16:32;3.90;99.90
19168;DHT22;9716;53.114;18.040;2023-11-18T00:19:01;3.90;99.90
19168;DHT22;9716;53.114;18.040;2023-11-18T00:21:33;4.00;99.90
19168;DHT22;9716;53.114;18.040;2023-11-18T00:24:03;4.00;99.90
19168;DHT22;9716;53.114;18.040;2023-11-18T00:26:32;3.90;99.90
19168;DHT22;9716;53.114;18.040;2023-11-18T00:29:01;3.90;99.90
19168;DHT22;9716;53.114;18.040;2023-11-18T00:31:29;3.90;99.90
19168;DHT22;9716;53.114;18.040;2023-11-18T00:33:58;3.80;99.90
19168;DHT22;9716;53.114;18.040;2023-11-18T00:36:27;3.70;99.90
19168;DHT22;9716;53.114;18.040;2023-11-18T00:38:57;3.70;99.90
19168;DHT22;9716;53.114;18.040;2023-11-18T00:41:25;3.60;99.90
19168;DHT22;9716;53.114;18.040;2023-11-18T00:43:53;3.50;99.90
19168;DHT22;9716;53.114;18.040;2023-11-18T00:46:22;3.50;99.90
19168;DHT22;9716;53.114;18.040;2023-11-18T00:48:50;3.40;99.90
19168;DHT22;9716;53.114;18.040;2023-11-18T00:51:19;3.40;99.90
19168;DHT22;9716;53.114;18.040;2023-11-18T00:53:47;3.40;99.90
19168;DHT22;9716;53.114;18.040;2023-11-18T00:56:17;3.30;99.90
19168;DHT22;9716;53.114;18.040;2023-11-18T00:58:45;3.30;99.90
19168;DHT22;9716;53.114;18.040;2023-11-18T01:01:14;3.30;99.90
19168;DHT22;9716;53.114;18.040;2023-11-18T01:03:45;3.30;99.90
19168;DHT22;9716;53.114;18.040;2023-11-18T01:06:14;3.30;99.90
19168;DHT22;9716;53.114;18.040;2023-11-18T01:08:44;3.30;99.90
19168;DHT22;9716;53.114;18.040;2023-11-18T01:11:17;3.30;99.90
19168;DHT22;9716;53.114;18.040;2023-11-18T01:13:46;3.20;99.90
19168;DHT22;9716;53.114;18.040;2023-11-18T01:16:15;3.20;99.90
19168;DHT22;9716;53.114;18.040;2023-11-18T01:18:44;3.20;99.90
19168;DHT22;9716;53.114;18.040;2023-11-18T01:21:13;3.20;99.90
19168;DHT22;9716;53.114;18.040;2023-11-18T01:23:44;3.20;99.90
19168;DHT22;9716;53.114;18.040;2023-11-18T01:26:13;3.10;99.90
19168;DHT22;9716;53.114;18.040;2023-11-18T01:28:43;3.10;99.90
19168;DHT22;9716;53.114;18.040;2023-11-18T01:31:12;3.10;99.90
19168;DHT22;9716;53.114;18.040;2023-11-18T01:33:41;3.10;99.90
19168;DHT22;9716;53.114;18.040;2023-11-18T01:36:11;3.10;99.90
19168;DHT22;9716;53.114;18.040;2023-11-18T01:38:39;3.10;99.90
19168;DHT22;9716;53.114;18.040;2023-11-18T01:41:07;3.10;99.90
19168;DHT22;9716;53.114;18.040;2023-11-18T01:43:36;3.10;99.90
19168;DHT22;9716;53.114;18.040;2023-11-18T01:46:09;3.10;99.90
19168;DHT22;9716;53.114;18.040;2023-11-18T01:48:40;3.10;99.90
19168;DHT22;9716;53.114;18.040;2023-11-18T01:51:10;3.20;99.90
19168;DHT22;9716;53.114;18.040;2023-11-18T01:53:37;3.10;99.90
19168;DHT22;9716;53.114;18.040;2023-11-18T01:56:07;3.10;99.90
19168;DHT22;9716;53.114;18.040;2023-11-18T01:58:37;3.10;99.90
19168;DHT22;9716;53.114;18.040;2023-11-18T02:01:05;3.10;99.90
19168;DHT22;9716;53.114;18.040;2023-11-18T02:03:37;3.10;99.90
19168;DHT22;9716;53.114;18.040;2023-11-18T02:06:08;3.10;99.90
19168;DHT22;9716;53.114;18.040;2023-11-18T02:08:37;3.10;99.90
19168;DHT22;9716;53.114;18.040;2023-11-18T02:11:14;3.10;99.90
19168;DHT22;9716;53.114;18.040;2023-11-18T02:13:48;3.10;99.90
19168;DHT22;9716;53.114;18.040;2023-11-18T02:16:18;3.10;99.90
19168;DHT22;9716;53.114;18.040;2023-11-18T02:18:49;3.20;99.90
19168;DHT22;9716;53.114;18.040;2023-11-18T02:21:19;3.10;99.90
19168;DHT22;9716;53.114;18.040;2023-11-18T02:23:48;3.10;99.90
19168;DHT22;9716;53.114;18.040;2023-11-18T02:26:23;3.10;99.90
19168;DHT22;9716;53.114;18.040;2023-11-18T02:28:51;3.10;99.90
19168;DHT22;9716;53.114;18.040;2023-11-18T02:31:27;3.10;99.90
19168;DHT22;9716;53.114;18.040;2023-11-18T02:34:02;3.10;99.90
19168;DHT22;9716;53.114;18.040;2023-11-18T02:36:39;3.10;99.90
19168;DHT22;9716;53.114;18.040;2023-11-18T02:39:12;3.10;99.90
19168;DHT22;9716;53.114;18.040;2023-11-18T02:41:47;3.10;99.90
19168;DHT22;9716;53.114;18.040;2023-11-18T02:44:17;3.00;99.90
19168;DHT22;9716;53.114;18.040;2023-11-18T02:46:47;3.10;99.90
19168;DHT22;9716;53.114;18.040;2023-11-18T02:49:16;3.10;99.90
19168;DHT22;9716;53.114;18.040;2023-11-18T02:51:45;3.20;99.90
19168;DHT22;9716;53.114;18.040;2023-11-18T02:54:15;3.20;99.90
19168;DHT22;9716;53.114;18.040;2023-11-18T02:56:43;3.20;99.90
19168;DHT22;9716;53.114;18.040;2023-11-18T02:59:13;3.20;99.90
19168;DHT22;9716;53.114;18.040;2023-11-18T03:01:42;3.30;99.90
19168;DHT22;9716;53.114;18.040;2023-11-18T03:04:11;3.30;99.90
19168;DHT22;9716;53.114;18.040;2023-11-18T03:06:41;3.30;99.90
19168;DHT22;9716;53.114;18.040;2023-11-18T03:09:10;3.40;99.90
19168;DHT22;9716;53.114;18.040;2023-11-18T03:11:38;3.30;99.90
19168;DHT22;9716;53.114;18.040;2023-11-18T03:14:06;3.30;99.90
19168;DHT22;9716;53.114;18.040;2023-11-18T03:16:38;3.30;99.90
19168;DHT22;9716;53.114;18.040;2023-11-18T03:19:07;3.30;99.90
19168;DHT22;9716;53.114;18.040;2023-11-18T03:21:36;3.30;99.90
19168;DHT22;9716;53.114;18.040;2023-11-18T03:24:06;3.30;99.90
19168;DHT22;9716;53.114;18.040;2023-11-18T03:26:36;3.30;99.90
19168;DHT22;9716;53.114;18.040;2023-11-18T03:29:04;3.40;99.90
19168;DHT22;9716;53.114;18.040;2023-11-18T03:31:33;3.40;99.90
19168;DHT22;9716;53.114;18.040;2023-11-18T03:34:03;3.40;99.90
19168;DHT22;9716;53.114;18.040;2023-11-18T03:36:32;3.40;99.90
19168;DHT22;9716;53.114;18.040;2023-11-18T03:39:00;3.40;99.90
19168;DHT22;9716;53.114;18.040;2023-11-18T03:41:31;3.50;99.90
19168;DHT22;9716;53.114;18.040;2023-11-18T03:43:59;3.50;99.90
19168;DHT22;9716;53.114;18.040;2023-11-18T03:46:27;3.50;99.90
19168;DHT22;9716;53.114;18.040;2023-11-18T03:49:02;3.50;99.90
19168;DHT22;9716;53.114;18.040;2023-11-18T03:51:31;3.50;99.90
19168;DHT22;9716;53.114;18.040;2023-11-18T03:53:59;3.60;99.90
19168;DHT22;9716;53.114;18.040;2023-11-18T03:56:28;3.60;99.90
19168;DHT22;9716;53.114;18.040;2023-11-18T03:58:56;3.60;99.90
19168;DHT22;9716;53.114;18.040;2023-11-18T04:01:26;3.60;99.90
19168;DHT22;9716;53.114;18.040;2023-11-18T04:03:55;3.70;99.90
19168;DHT22;9716;53.114;18.040;2023-11-18T04:06:25;3.80;99.90
19168;DHT22;9716;53.114;18.040;2023-11-18T04:08:53;3.80;99.90
19168;DHT22;9716;53.114;18.040;2023-11-18T04:11:22;3.70;99.90
19168;DHT22;9716;53.114;18.040;2023-11-18T04:13:50;3.80;99.90
19168;DHT22;9716;53.114;18.040;2023-11-18T04:16:20;3.80;99.90
19168;DHT22;9716;53.114;18.040;2023-11-18T04:18:48;3.80;99.90
19168;DHT22;9716;53.114;18.040;2023-11-18T04:21:17;3.80;99.90
19168;DHT22;9716;53.114;18.040;2023-11-18T04:23:47;3.80;99.90
19168;DHT22;9716;53.114;18.040;2023-11-18T04:26:16;3.80;99.90
19168;DHT22;9716;53.114;18.040;2023-11-18T04:28:44;3.90;99.90
19168;DHT22;9716;53.114;18.040;2023-11-18T04:31:12;3.90;99.90
19168;DHT22;9716;53.114;18.040;2023-11-18T04:33:41;3.90;99.90
19168;DHT22;9716;53.114;18.040;2023-11-18T04:36:10;3.90;99.90
19168;DHT22;9716;53.114;18.040;2023-11-18T04:38:40;3.90;99.90
19168;DHT22;9716;53.114;18.040;2023-11-18T04:41:10;3.90;99.90
19168;DHT22;9716;53.114;18.040;2023-11-18T04:43:38;3.90;99.90
19168;DHT22;9716;53.114;18.040;2023-11-18T04:46:12;3.80;99.90
19168;DHT22;9716;53.114;18.040;2023-11-18T04:48:40;3.80;99.90
19168;DHT22;9716;53.114;18.040;2023-11-18T04:51:10;3.90;99.90
19168;DHT22;9716;53.114;18.040;2023-11-18T04:53:39;3.80;99.90
19168;DHT22;9716;53.114;18.040;2023-11-18T04:56:09;3.90;99.90
19168;DHT22;9716;53.114;18.040;2023-11-18T04:58:38;3.90;99.90
19168;DHT22;9716;53.114;18.040;2023-11-18T05:01:07;3.90;99.90
19168;DHT22;9716;53.114;18.040;2023-11-18T05:03:36;3.90;99.90
19168;DHT22;9716;53.114;18.040;2023-11-18T05:06:05;3.90;99.90
19168;DHT22;9716;53.114;18.040;2023-11-18T05:08:35;3.90;99.90
19168;DHT22;9716;53.114;18.040;2023-11-18T05:11:04;3.90;99.90
19168;DHT22;9716;53.114;18.040;2023-11-18T05:13:34;3.90;99.90
19168;DHT22;9716;53.114;18.040;2023-11-18T05:16:03;3.90;99.90
19168;DHT22;9716;53.114;18.040;2023-11-18T05:18:32;3.90;99.90
19168;DHT22;9716;53.114;18.040;2023-11-18T05:21:04;3.90;99.90
19168;DHT22;9716;53.114;18.040;2023-11-18T05:23:34;3.90;99.90
19168;DHT22;9716;53.114;18.040;2023-11-18T05:26:03;3.90;99.90
19168;DHT22;9716;53.114;18.040;2023-11-18T05:28:34;3.90;99.90
19168;DHT22;9716;53.114;18.040;2023-11-18T05:31:03;3.90;99.90
19168;DHT22;9716;53.114;18.040;2023-11-18T05:33:32;3.90;99.90
19168;DHT22;9716;53.114;18.040;2023-11-18T05:36:03;3.90;99.90
19168;DHT22;9716;53.114;18.040;2023-11-18T05:38:33;3.90;99.90
19168;DHT22;9716;53.114;18.040;2023-11-18T05:41:03;3.90;99.90
19168;DHT22;9716;53.114;18.040;2023-11-18T05:43:34;3.90;99.90
19168;DHT22;9716;53.114;18.040;2023-11-18T05:46:08;3.90;99.90
19168;DHT22;9716;53.114;18.040;2023-11-18T05:48:48;3.90;99.90
19168;DHT22;9716;53.114;18.040;2023-11-18T05:51:19;3.90;99.90
19168;DHT22;9716;53.114;18.040;2023-11-18T05:53:49;3.90;99.90
19168;DHT22;9716;53.114;18.040;2023-11-18T05:56:20;3.90;99.90
19168;DHT22;9716;53.114;18.040;2023-11-18T05:58:52;3.90;99.90
19168;DHT22;9716;53.114;18.040;2023-11-18T06:01:22;3.90;99.90
19168;DHT22;9716;53.114;18.040;2023-11-18T06:03:51;3.90;99.90
19168;DHT22;9716;53.114;18.040;2023-11-18T06:06:20;3.90;99.90
19168;DHT22;9716;53.114;18.040;2023-11-18T06:08:51;3.80;99.90
19168;DHT22;9716;53.114;18.040;2023-11-18T06:11:21;3.80;99.90
19168;DHT22;9716;53.114;18.040;2023-11-18T06:13:52;3.80;99.90
19168;DHT22;9716;53.114;18.040;2023-11-18T06:16:22;3.80;99.90
19168;DHT22;9716;53.114;18.040;2023-11-18T06:18:53;3.80;99.90
19168;DHT22;9716;53.114;18.040;2023-11-18T06:21:23;3.70;99.90
19168;DHT22;9716;53.114;18.040;2023-11-18T06:23:55;3.70;99.90
19168;DHT22;9716;53.114;18.040;2023-11-18T06:26:25;3.70;99.90
19168;DHT22;9716;53.114;18.040;2023-11-18T06:28:56;3.70;99.90
19168;DHT22;9716;53.114;18.040;2023-11-18T06:31:25;3.70;99.90
19168;DHT22;9716;53.114;18.040;2023-11-18T06:33:53;3.70;99.90
19168;DHT22;9716;53.114;18.040;2023-11-18T06:36:22;3.70;99.90
19168;DHT22;9716;53.114;18.040;2023-11-18T06:38:53;3.70;99.90
19168;DHT22;9716;53.114;18.040;2023-11-18T06:41:23;3.70;99.90
19168;DHT22;9716;53.114;18.040;2023-11-18T06:43:55;3.70;99.90
19168;DHT22;9716;53.114;18.040;2023-11-18T06:46:31;3.70;99.90
19168;DHT22;9716;53.114;18.040;2023-11-18T06:49:02;3.70;99.90
19168;DHT22;9716;53.114;18.040;2023-11-18T06:51:32;3.70;99.90
19168;DHT22;9716;53.114;18.040;2023-11-18T06:54:04;3.60;99.90
19168;DHT22;9716;53.114;18.040;2023-11-18T06:56:38;3.60;99.90
19168;DHT22;9716;53.114;18.040;2023-11-18T06:59:12;3.60;99.90
19168;DHT22;9716;53.114;18.040;2023-11-18T07:01:43;3.70;99.90
19168;DHT22;9716;53.114;18.040;2023-11-18T07:04:13;3.70;99.90
19168;DHT22;9716;53.114;18.040;2023-11-18T07:06:43;3.70;99.90
19168;DHT22;9716;53.114;18.040;2023-11-18T07:09:12;3.70;99.90
19168;DHT22;9716;53.114;18.040;2023-11-18T07:11:45;3.80;99.90
19168;DHT22;9716;53.114;18.040;2023-11-18T07:14:16;3.80;99.90
19168;DHT22;9716;53.114;18.040;2023-11-18T07:16:45;3.70;99.90
19168;DHT22;9716;53.114;18.040;2023-11-18T07:19:15;3.80;99.90
19168;DHT22;9716;53.114;18.040;2023-11-18T07:21:49;3.80;99.90
19168;DHT22;9716;53.114;18.040;2023-11-18T07:24:18;3.80;99.90
19168;DHT22;9716;53.114;18.040;2023-11-18T07:26:47;3.80;99.90
19168;DHT22;9716;53.114;18.040;2023-11-18T07:29:19;3.80;99.90
19168;DHT22;9716;53.114;18.040;2023-11-18T07:31:51;3.90;99.90
19168;DHT22;9716;53.114;18.040;2023-11-18T07:34:22;3.80;99.90
19168;DHT22;9716;53.114;18.040;2023-11-18T07:36:51;3.80;99.90
19168;DHT22;9716;53.114;18.040;2023-11-18T07:39:19;3.80;99.90
19168;DHT22;9716;53.114;18.040;2023-11-18T07:41:52;3.80;99.90
19168;DHT22;9716;53.114;18.040;2023-11-18T07:44:22;3.90;99.90
19168;DHT22;9716;53.114;18.040;2023-11-18T07:46:51;3.90;99.90
19168;DHT22;9716;53.114;18.040;2023-11-18T07:49:19;4.00;99.90
19168;DHT22;9716;53.114;18.040;2023-11-18T07:51:53;4.10;99.90
19168;DHT22;9716;53.114;18.040;2023-11-18T07:54:23;4.20;99.90
19168;DHT22;9716;53.114;18.040;2023-11-18T07:56:52;4.30;99.90
19168;DHT22;9716;53.114;18.040;2023-11-18T07:59:22;4.40;99.90
19168;DHT22;9716;53.114;18.040;2023-11-18T08:01:51;4.60;99.90
19168;DHT22;9716;53.114;18.040;2023-11-18T08:04:21;4.70;99.90
19168;DHT22;9716;53.114;18.040;2023-11-18T08:06:49;4.90;99.90
19168;DHT22;9716;53.114;18.040;2023-11-18T08:09:19;5.00;99.90
19168;DHT22;9716;53.114;18.040;2023-11-18T08:11:51;5.20;99.90
19168;DHT22;9716;53.114;18.040;2023-11-18T08:14:23;5.30;99.90
19168;DHT22;9716;53.114;18.040;2023-11-18T08:16:52;5.40;99.90
19168;DHT22;9716;53.114;18.040;2023-11-18T08:19:22;5.50;99.90
19168;DHT22;9716;53.114;18.040;2023-11-18T08:21:51;5.50;99.90
19168;DHT22;9716;53.114;18.040;2023-11-18T08:24:19;5.60;99.90
19168;DHT22;9716;53.114;18.040;2023-11-18T08:26:49;5.70;99.90
19168;DHT22;9716;53.114;18.040;2023-11-18T08:29:17;5.80;99.90
19168;DHT22;9716;53.114;18.040;2023-11-18T08:31:47;5.90;99.90
19168;DHT22;9716;53.114;18.040;2023-11-18T08:34:16;6.00;99.90
19168;DHT22;9716;53.114;18.040;2023-11-18T08:36:46;6.00;99.90
19168;DHT22;9716;53.114;18.040;2023-11-18T08:39:14;6.10;99.90
19168;DHT22;9716;53.114;18.040;2023-11-18T08:41:44;6.10;99.90
19168;DHT22;9716;53.114;18.040;2023-11-18T08:44:12;6.10;99.90
19168;DHT22;9716;53.114;18.040;2023-11-18T08:46:52;6.00;99.90
19168;DHT22;9716;53.114;18.040;2023-11-18T08:49:21;6.00;99.90
19168;DHT22;9716;53.114;18.040;2023-11-18T08:51:50;6.00;99.90
19168;DHT22;9716;53.114;18.040;2023-11-18T08:54:24;6.10;99.90
19168;DHT22;9716;53.114;18.040;2023-11-18T08:57:04;6.20;99.90
19168;DHT22;9716;53.114;18.040;2023-11-18T08:59:46;6.20;99.90
19168;DHT22;9716;53.114;18.040;2023-11-18T09:02:18;6.20;99.90
19168;DHT22;9716;53.114;18.040;2023-11-18T09:04:50;6.20;99.90
19168;DHT22;9716;53.114;18.040;2023-11-18T09:07:20;6.20;99.90
19168;DHT22;9716;53.114;18.040;2023-11-18T09:09:48;6.20;99.90
19168;DHT22;9716;53.114;18.040;2023-11-18T09:12:20;6.10;99.90
19168;DHT22;9716;53.114;18.040;2023-11-18T09:14:48;6.00;99.90
19168;DHT22;9716;53.114;18.040;2023-11-18T09:17:20;5.80;99.90
19168;DHT22;9716;53.114;18.040;2023-11-18T09:19:50;5.80;99.90
19168;DHT22;9716;53.114;18.040;2023-11-18T09:22:20;5.80;99.90
19168;DHT22;9716;53.114;18.040;2023-11-18T09:24:50;5.80;99.90
19168;DHT22;9716;53.114;18.040;2023-11-18T09:27:18;5.90;99.90
19168;DHT22;9716;53.114;18.040;2023-11-18T09:29:47;5.90;99.90
19168;DHT22;9716;53.114;18.040;2023-11-18T09:32:17;5.90;99.90
19168;DHT22;9716;53.114;18.040;2023-11-18T09:34:47;5.90;99.90
19168;DHT22;9716;53.114;18.040;2023-11-18T09:37:16;5.90;99.90
19168;DHT22;9716;53.114;18.040;2023-11-18T09:39:45;5.90;99.90
19168;DHT22;9716;53.114;18.040;2023-11-18T09:42:20;5.90;99.90
19168;DHT22;9716;53.114;18.040;2023-11-18T09:44:51;5.80;99.90
19168;DHT22;9716;53.114;18.040;2023-11-18T09:47:21;5.80;99.90
19168;DHT22;9716;53.114;18.040;2023-11-18T09:49:56;5.80;99.90
19168;DHT22;9716;53.114;18.040;2023-11-18T09:52:27;5.80;99.90
19168;DHT22;9716;53.114;18.040;2023-11-18T09:55:03;5.70;99.90
19168;DHT22;9716;53.114;18.040;2023-11-18T09:57:33;5.80;99.90
19168;DHT22;9716;53.114;18.040;2023-11-18T10:00:08;5.80;99.90
19168;DHT22;9716;53.114;18.040;2023-11-18T10:02:48;5.70;99.90
19168;DHT22;9716;53.114;18.040;2023-11-18T10:05:21;5.70;99.90
19168;DHT22;9716;53.114;18.040;2023-11-18T10:07:50;5.80;99.90
19168;DHT22;9716;53.114;18.040;2023-11-18T10:10:19;5.70;99.90
19168;DHT22;9716;53.114;18.040;2023-11-18T10:12:50;5.70;99.90
19168;DHT22;9716;53.114;18.040;2023-11-18T10:15:21;5.70;99.90
19168;DHT22;9716;53.114;18.040;2023-11-18T10:17:52;5.70;99.90
19168;DHT22;9716;53.114;18.040;2023-11-18T10:20:46;5.70;99.90
19168;DHT22;9716;53.114;18.040;2023-11-18T10:23:16;5.70;99.90
19168;DHT22;9716;53.114;18.040;2023-11-18T10:25:49;5.80;99.90
19168;DHT22;9716;53.114;18.040;2023-11-18T10:28:24;5.80;99.90
19168;DHT22;9716;53.114;18.040;2023-11-18T10:30:56;5.80;99.90
19168;DHT22;9716;53.114;18.040;2023-11-18T10:33:26;5.80;99.90
19168;DHT22;9716;53.114;18.040;2023-11-18T10:36:00;5.90;99.90
19168;DHT22;9716;53.114;18.040;2023-11-18T10:38:32;5.90;99.90
19168;DHT22;9716;53.114;18.040;2023-11-18T10:41:05;5.90;99.90
19168;DHT22;9716;53.114;18.040;2023-11-18T10:43:34;5.90;99.90
19168;DHT22;9716;53.114;18.040;2023-11-18T10:46:07;6.00;99.90
19168;DHT22;9716;53.114;18.040;2023-11-18T10:48:40;6.00;99.90
19168;DHT22;9716;53.114;18.040;2023-11-18T10:51:12;6.00;99.90
19168;DHT22;9716;53.114;18.040;2023-11-18T10:53:42;6.10;99.90
19168;DHT22;9716;53.114;18.040;2023-11-18T10:56:21;6.10;99.90
19168;DHT22;9716;53.114;18.040;2023-11-18T10:58:56;6.10;99.90
19168;DHT22;9716;53.114;18.040;2023-11-18T11:01:28;6.10;99.90
19168;DHT22;9716;53.114;18.040;2023-11-18T11:03:59;6.10;99.90
19168;DHT22;9716;53.114;18.040;2023-11-18T11:06:33;6.00;99.90
19168;DHT22;9716;53.114;18.040;2023-11-18T11:09:02;6.10;99.90
19168;DHT22;9716;53.114;18.040;2023-11-18T11:11:46;6.10;99.90
19168;DHT22;9716;53.114;18.040;2023-11-18T11:14:16;6.00;99.90
19168;DHT22;9716;53.114;18.040;2023-11-18T11:16:50;6.00;99.90
19168;DHT22;9716;53.114;18.040;2023-11-18T11:19:25;6.00;99.90
19168;DHT22;9716;53.114;18.040;2023-11-18T11:22:05;6.10;99.90
19168;DHT22;9716;53.114;18.040;2023-11-18T11:24:46;6.20;99.90
19168;DHT22;9716;53.114;18.040;2023-11-18T11:27:23;6.30;99.90
19168;DHT22;9716;53.114;18.040;2023-11-18T11:30:08;6.30;99.90
19168;DHT22;9716;53.114;18.040;2023-11-18T11:32:45;6.40;99.90
19168;DHT22;9716;53.114;18.040;2023-11-18T11:35:19;6.40;99.90
19168;DHT22;9716;53.114;18.040;2023-11-18T11:37:52;6.50;99.90
19168;DHT22;9716;53.114;18.040;2023-11-18T11:40:31;6.50;99.90
19168;DHT22;9716;53.114;18.040;2023-11-18T11:43:02;6.70;99.90
19168;DHT22;9716;53.114;18.040;2023-11-18T11:45:33;6.80;99.90
19168;DHT22;9716;53.114;18.040;2023-11-18T11:48:06;6.90;99.90
19168;DHT22;9716;53.114;18.040;2023-11-18T11:53:53;6.90;99.90
19168;DHT22;9716;53.114;18.040;2023-11-18T11:56:38;7.00;99.90
19168;DHT22;9716;53.114;18.040;2023-11-18T11:59:07;7.00;99.90
19168;DHT22;9716;53.114;18.040;2023-11-18T12:01:40;7.10;99.90
19168;DHT22;9716;53.114;18.040;2023-11-18T12:04:15;7.10;99.90
19168;DHT22;9716;53.114;18.040;2023-11-18T12:06:52;7.20;99.90
19168;DHT22;9716;53.114;18.040;2023-11-18T12:09:40;7.20;99.90
19168;DHT22;9716;53.114;18.040;2023-11-18T12:12:17;7.10;99.90
19168;DHT22;9716;53.114;18.040;2023-11-18T12:14:50;7.10;99.90
19168;DHT22;9716;53.114;18.040;2023-11-18T12:17:20;7.10;99.90
19168;DHT22;9716;53.114;18.040;2023-11-18T12:19:55;7.10;99.90
19168;DHT22;9716;53.114;18.040;2023-11-18T12:22:26;7.00;99.90
19168;DHT22;9716;53.114;18.040;2023-11-18T12:28:09;6.90;99.90
19168;DHT22;9716;53.114;18.040;2023-11-18T12:30:39;6.90;99.90
19168;DHT22;9716;53.114;18.040;2023-11-18T12:33:19;6.90;99.90
19168;DHT22;9716;53.114;18.040;2023-11-18T12:42:03;6.80;99.90
19168;DHT22;9716;53.114;18.040;2023-11-18T12:44:57;6.90;99.90
19168;DHT22;9716;53.114;18.040;2023-11-18T12:47:33;6.90;99.90
19168;DHT22;9716;53.114;18.040;2023-11-18T12:50:09;6.80;99.90
19168;DHT22;9716;53.114;18.040;2023-11-18T12:52:44;6.80;99.90
19168;DHT22;9716;53.114;18.040;2023-11-18T12:55:13;6.80;99.90
19168;DHT22;9716;53.114;18.040;2023-11-18T12:57:46;6.70;99.90
19168;DHT22;9716;53.114;18.040;2023-11-18T13:00:17;6.60;99.90
19168;DHT22;9716;53.114;18.040;2023-11-18T13:02:53;6.50;99.90
19168;DHT22;9716;53.114;18.040;2023-11-18T13:05:25;6.40;99.90
19168;DHT22;9716;53.114;18.040;2023-11-18T13:07:57;6.40;99.90
19168;DHT22;9716;53.114;18.040;2023-11-18T13:10:28;6.30;99.90
19168;DHT22;9716;53.114;18.040;2023-11-18T13:12:57;6.30;99.90
19168;DHT22;9716;53.114;18.040;2023-11-18T13:15:29;6.30;99.90
19168;DHT22;9716;53.114;18.040;2023-11-18T13:17:59;6.30;99.90
19168;DHT22;9716;53.114;18.040;2023-11-18T13:20:28;6.40;99.90
19168;DHT22;9716;53.114;18.040;2023-11-18T13:22:59;6.40;99.90
19168;DHT22;9716;53.114;18.040;2023-11-18T13:25:28;6.40;99.90
19168;DHT22;9716;53.114;18.040;2023-11-18T13:27:57;6.40;99.90
19168;DHT22;9716;53.114;18.040;2023-11-18T13:30:26;6.40;99.90
19168;DHT22;9716;53.114;18.040;2023-11-18T13:32:57;6.40;99.90
19168;DHT22;9716;53.114;18.040;2023-11-18T13:35:26;6.30;99.90
19168;DHT22;9716;53.114;18.040;2023-11-18T13:37:55;6.30;99.90
19168;DHT22;9716;53.114;18.040;2023-11-18T13:40:25;6.30;99.90
19168;DHT22;9716;53.114;18.040;2023-11-18T13:43:03;6.20;99.90
19168;DHT22;9716;53.114;18.040;2023-11-18T13:45:36;6.20;99.90
19168;DHT22;9716;53.114;18.040;2023-11-18T13:48:07;6.20;99.90
19168;DHT22;9716;53.114;18.040;2023-11-18T13:50:36;6.10;99.90
19168;DHT22;9716;53.114;18.040;2023-11-18T13:53:06;6.10;99.90
19168;DHT22;9716;53.114;18.040;2023-11-18T13:55:35;6.00;99.90
19168;DHT22;9716;53.114;18.040;2023-11-18T13:58:06;6.00;99.90
19168;DHT22;9716;53.114;18.040;2023-11-18T14:00:38;6.00;99.90
19168;DHT22;9716;53.114;18.040;2023-11-18T14:03:08;6.00;99.90
19168;DHT22;9716;53.114;18.040;2023-11-18T14:05:39;6.00;99.90
19168;DHT22;9716;53.114;18.040;2023-11-18T14:08:17;5.90;99.90
19168;DHT22;9716;53.114;18.040;2023-11-18T14:10:47;5.90;99.90
19168;DHT22;9716;53.114;18.040;2023-11-18T14:13:29;5.90;99.90
19168;DHT22;9716;53.114;18.040;2023-11-18T14:15:58;5.90;99.90
19168;DHT22;9716;53.114;18.040;2023-11-18T14:18:28;5.90;99.90
19168;DHT22;9716;53.114;18.040;2023-11-18T14:20:57;5.80;99.90
19168;DHT22;9716;53.114;18.040;2023-11-18T14:23:28;5.80;99.90
19168;DHT22;9716;53.114;18.040;2023-11-18T14:25:56;5.70;99.90
19168;DHT22;9716;53.114;18.040;2023-11-18T14:28:25;5.70;99.90
19168;DHT22;9716;53.114;18.040;2023-11-18T14:30:55;5.70;99.90
19168;DHT22;9716;53.114;18.040;2023-11-18T14:33:23;5.60;99.90
19168;DHT22;9716;53.114;18.040;2023-11-18T14:35:53;5.60;99.90
19168;DHT22;9716;53.114;18.040;2023-11-18T14:38:23;5.50;99.90
19168;DHT22;9716;53.114;18.040;2023-11-18T14:40:52;5.60;99.90
19168;DHT22;9716;53.114;18.040;2023-11-18T14:43:20;5.50;99.90
19168;DHT22;9716;53.114;18.040;2023-11-18T14:45:49;5.50;99.90
19168;DHT22;9716;53.114;18.040;2023-11-18T14:48:17;5.50;99.90
19168;DHT22;9716;53.114;18.040;2023-11-18T14:50:46;5.40;99.90
19168;DHT22;9716;53.114;18.040;2023-11-18T14:53:16;5.30;99.90
19168;DHT22;9716;53.114;18.040;2023-11-18T14:55:44;5.40;99.90
19168;DHT22;9716;53.114;18.040;2023-11-18T14:58:12;5.30;99.90
19168;DHT22;9716;53.114;18.040;2023-11-18T15:00:41;5.30;99.90
19168;DHT22;9716;53.114;18.040;2023-11-18T15:03:10;5.40;99.90
19168;DHT22;9716;53.114;18.040;2023-11-18T15:05:38;5.40;99.90
19168;DHT22;9716;53.114;18.040;2023-11-18T15:08:07;5.50;99.90
19168;DHT22;9716;53.114;18.040;2023-11-18T15:10:40;5.60;99.90
19168;DHT22;9716;53.114;18.040;2023-11-18T15:13:09;5.80;99.90
19168;DHT22;9716;53.114;18.040;2023-11-18T15:15:43;6.00;99.90
19168;DHT22;9716;53.114;18.040;2023-11-18T15:18:15;6.10;99.90
19168;DHT22;9716;53.114;18.040;2023-11-18T15:20:45;6.20;99.90
19168;DHT22;9716;53.114;18.040;2023-11-18T15:23:16;6.40;99.90
19168;DHT22;9716;53.114;18.040;2023-11-18T15:25:49;6.50;99.90
19168;DHT22;9716;53.114;18.040;2023-11-18T15:28:18;6.50;99.90
19168;DHT22;9716;53.114;18.040;2023-11-18T15:30:48;6.70;99.90
19168;DHT22;9716;53.114;18.040;2023-11-18T15:33:16;6.80;99.90
19168;DHT22;9716;53.114;18.040;2023-11-18T15:35:45;6.90;99.90
19168;DHT22;9716;53.114;18.040;2023-11-18T15:38:13;7.00;99.90
19168;DHT22;9716;53.114;18.040;2023-11-18T15:40:49;7.10;99.90
19168;DHT22;9716;53.114;18.040;2023-11-18T15:43:18;7.10;99.90
19168;DHT22;9716;53.114;18.040;2023-11-18T15:45:47;7.20;99.90
19168;DHT22;9716;53.114;18.040;2023-11-18T15:48:16;7.20;99.90
19168;DHT22;9716;53.114;18.040;2023-11-18T15:50:44;7.30;99.90
19168;DHT22;9716;53.114;18.040;2023-11-18T15:53:13;7.30;99.90
19168;DHT22;9716;53.114;18.040;2023-11-18T15:55:43;7.40;99.90
19168;DHT22;9716;53.114;18.040;2023-11-18T15:58:16;7.40;99.90
19168;DHT22;9716;53.114;18.040;2023-11-18T16:00:46;7.40;99.90
19168;DHT22;9716;53.114;18.040;2023-11-18T16:03:15;7.40;99.90
19168;DHT22;9716;53.114;18.040;2023-11-18T16:05:43;7.30;99.90
19168;DHT22;9716;53.114;18.040;2023-11-18T16:08:12;7.30;99.90
19168;DHT22;9716;53.114;18.040;2023-11-18T16:10:40;7.30;99.90
19168;DHT22;9716;53.114;18.040;2023-11-18T16:13:10;7.30;99.90
19168;DHT22;9716;53.114;18.040;2023-11-18T16:15:39;7.30;99.90
19168;DHT22;9716;53.114;18.040;2023-11-18T16:18:08;7.30;99.90
19168;DHT22;9716;53.114;18.040;2023-11-18T16:20:37;7.20;99.90